Time;durP1;ratioP1;P1;durP2;ratioP2;P2;SDS_P1;SDS_P2;PMS_P1;PMS_P2;Temp;Humidity;BMP_temperature;BMP_pressure;BME280_temperature;BME280_humidity;BME280_pressure;Samples;Min_cycle;Max_cycle;Signal;HPM_P1;HPM_P2
2023/01/11 00:01:05;;;;;;;5.37;2.10;;;1.10;99.90;;;;;;6182983;23;20412;-77
2023/01/11 00:03:33;;;;;;;3.03;1.90;;;1.10;99.90;;;;;;6182999;23;21103;-76
2023/01/11 00:06:01;;;;;;;5.60;2.00;;;1.00;99.90;;;;;;6182019;23;20491;-79
2023/01/11 00:08:29;;;;;;;4.17;1.93;;;1.00;99.90;;;;;;6183424;23;20410;-79
2023/01/11 00:11:01;;;;;;;5.37;2.53;;;1.00;99.90;;;;;;6183209;23;20216;-79
2023/01/11 00:13:29;;;;;;;3.20;1.80;;;1.00;99.90;;;;;;6181866;23;20388;-78
2023/01/11 00:15:57;;;;;;;4.20;2.50;;;0.90;99.90;;;;;;6183621;23;20181;-79
2023/01/11 00:18:25;;;;;;;3.90;2.30;;;0.90;99.90;;;;;;6183556;23;20484;-78
2023/01/11 00:20:53;;;;;;;7.90;2.20;;;0.90;99.90;;;;;;6183588;23;20645;-78
2023/01/11 00:23:22;;;;;;;4.70;2.30;;;0.90;99.90;;;;;;6183052;23;20277;-79
2023/01/11 00:25:49;;;;;;;4.43;2.13;;;0.90;99.90;;;;;;6183644;23;20291;-78
2023/01/11 00:28:19;;;;;;;3.10;1.90;;;0.90;99.90;;;;;;6184872;23;20520;-80
2023/01/11 00:30:48;;;;;;;5.03;2.40;;;0.90;99.90;;;;;;6185397;23;20189;-78
2023/01/11 00:33:16;;;;;;;5.40;2.20;;;0.90;99.90;;;;;;6184371;23;20496;-77
2023/01/11 00:35:45;;;;;;;4.50;2.17;;;1.00;99.90;;;;;;6184950;23;20252;-78
2023/01/11 00:38:42;;;;;;;5.03;2.10;;;1.00;99.90;;;;;;6185687;23;20203;-78
2023/01/11 00:47:55;;;;;;;4.27;2.00;;;1.00;99.90;;;;;;6184060;23;20708;-79
2023/01/11 00:49:22;;;;;;;4.57;2.10;;;1.10;99.90;;;;;;6184568;23;20187;-79
2023/01/11 00:51:50;;;;;;;4.03;1.87;;;1.10;99.90;;;;;;6184597;23;20280;-78
2023/01/11 00:54:19;;;;;;;3.90;2.00;;;1.20;99.90;;;;;;6184750;23;20693;-78
2023/01/11 00:56:47;;;;;;;3.83;1.97;;;1.20;99.90;;;;;;6184666;23;20415;-78
2023/01/11 00:59:16;;;;;;;2.30;1.67;;;1.20;99.90;;;;;;6185222;23;20183;-77
2023/01/11 01:01:44;;;;;;;3.07;1.60;;;1.30;99.90;;;;;;6184607;23;20260;-81
2023/01/11 01:04:12;;;;;;;4.40;1.90;;;1.30;99.90;;;;;;6184922;23;20428;-78
2023/01/11 01:06:40;;;;;;;3.43;1.80;;;1.40;99.90;;;;;;6184852;23;20200;-79
2023/01/11 01:09:34;;;;;;;2.20;1.50;;;1.40;99.90;;;;;;6185647;23;20247;-73
2023/01/11 01:12:02;;;;;;;2.80;1.77;;;1.50;99.90;;;;;;6184898;23;20215;-76
2023/01/11 01:14:32;;;;;;;4.33;1.87;;;1.50;99.90;;;;;;6185875;23;20236;-75
2023/01/11 01:17:02;;;;;;;2.03;1.57;;;1.50;99.90;;;;;;6185650;23;20176;-78
2023/01/11 01:19:31;;;;;;;2.87;1.80;;;1.60;99.90;;;;;;6185754;23;20210;-79
2023/01/11 01:22:00;;;;;;;3.70;1.80;;;1.60;99.90;;;;;;6183846;23;20178;-79
2023/01/11 01:24:29;;;;;;;3.40;1.57;;;1.60;99.90;;;;;;6184970;23;20188;-80
2023/01/11 01:26:58;;;;;;;2.90;1.60;;;1.70;99.90;;;;;;6184949;23;20296;-79
2023/01/11 01:29:26;;;;;;;2.20;1.50;;;1.70;99.90;;;;;;6184697;23;20612;-77
2023/01/11 01:31:56;;;;;;;3.23;1.70;;;1.70;99.90;;;;;;6183909;23;20184;-77
2023/01/11 01:34:24;;;;;;;2.63;1.53;;;1.70;99.90;;;;;;6185126;23;20191;-77
2023/01/11 01:36:52;;;;;;;2.57;1.30;;;1.70;99.90;;;;;;6185531;23;20177;-76
2023/01/11 01:39:20;;;;;;;4.17;1.90;;;1.70;99.90;;;;;;6185245;23;20203;-77
2023/01/11 01:41:48;;;;;;;4.50;1.80;;;1.80;99.90;;;;;;6184359;23;20231;-79
2023/01/11 01:44:55;;;;;;;2.73;1.60;;;1.80;99.90;;;;;;6185584;23;20209;-77
2023/01/11 01:47:31;;;;;;;2.63;1.50;;;1.80;99.90;;;;;;6186212;23;20233;-78
2023/01/11 01:50:04;;;;;;;3.90;1.90;;;1.80;99.90;;;;;;6186487;23;20165;-79
2023/01/11 01:52:34;;;;;;;2.00;1.20;;;1.80;99.90;;;;;;6184209;23;20205;-77
2023/01/11 01:55:07;;;;;;;1.80;1.40;;;1.90;99.90;;;;;;6185160;23;20188;-79
2023/01/11 01:57:39;;;;;;;3.57;1.63;;;1.90;99.90;;;;;;6186969;23;20161;-74
2023/01/11 02:00:09;;;;;;;3.60;1.80;;;1.90;99.90;;;;;;6186701;23;20187;-74
2023/01/11 02:02:40;;;;;;;2.13;1.40;;;1.90;99.90;;;;;;6184158;23;20181;-78
2023/01/11 02:05:09;;;;;;;3.47;1.50;;;2.00;99.90;;;;;;6184069;23;20188;-80
2023/01/11 02:07:40;;;;;;;2.23;1.30;;;2.00;99.90;;;;;;6184443;23;20196;-75
2023/01/11 02:10:10;;;;;;;2.07;1.20;;;2.10;99.90;;;;;;6184484;23;20180;-80
2023/01/11 02:12:41;;;;;;;2.40;1.30;;;2.20;99.90;;;;;;6183327;23;20170;-80
2023/01/11 02:15:12;;;;;;;2.10;1.13;;;2.30;99.90;;;;;;6184289;23;20212;-80
2023/01/11 02:17:41;;;;;;;3.87;1.40;;;2.30;99.90;;;;;;6184348;23;20200;-80
2023/01/11 02:20:44;;;;;;;1.17;1.07;;;2.30;99.90;;;;;;6184987;23;20187;-79
2023/01/11 02:23:51;;;;;;;2.33;1.37;;;2.30;99.90;;;;;;6183715;23;20259;-80
2023/01/11 02:26:54;;;;;;;2.07;1.07;;;2.30;99.90;;;;;;6184720;23;20752;-80
2023/01/11 02:29:33;;;;;;;1.13;1.00;;;2.30;99.90;;;;;;6184514;23;20645;-78
2023/01/11 02:32:13;;;;;;;3.27;1.30;;;2.30;99.90;;;;;;6182224;23;20169;-79
2023/01/11 02:34:47;;;;;;;2.67;1.20;;;2.30;99.90;;;;;;6184292;23;20165;-78
2023/01/11 02:37:27;;;;;;;1.20;1.10;;;2.30;99.90;;;;;;6182377;23;20176;-80
2023/01/11 02:40:05;;;;;;;2.20;1.20;;;2.30;99.90;;;;;;6183844;23;20161;-79
2023/01/11 02:45:36;;;;;;;2.40;0.93;;;2.20;99.90;;;;;;6184623;23;20170;-79
2023/01/11 02:48:16;;;;;;;3.93;0.90;;;2.20;99.90;;;;;;6183817;23;20543;-79
2023/01/11 02:50:50;;;;;;;2.43;1.00;;;2.20;99.90;;;;;;6183611;23;20224;-81
2023/01/11 02:53:25;;;;;;;1.60;0.90;;;2.20;99.90;;;;;;6182824;23;20224;-79
2023/01/11 02:55:57;;;;;;;2.00;0.90;;;2.20;99.90;;;;;;6184283;23;20165;-79
2023/01/11 02:58:29;;;;;;;1.80;1.10;;;2.10;99.90;;;;;;6183682;23;20180;-79
2023/01/11 03:00:59;;;;;;;3.77;1.10;;;2.10;99.90;;;;;;6183529;23;20193;-79
2023/01/11 03:03:28;;;;;;;2.53;0.90;;;2.00;99.90;;;;;;6183462;23;20240;-79
2023/01/11 03:06:00;;;;;;;2.73;1.10;;;2.00;99.90;;;;;;6184366;23;20220;-77
2023/01/11 03:08:50;;;;;;;2.80;1.10;;;2.00;99.90;;;;;;6183915;23;20205;-78
2023/01/11 03:12:50;;;;;;;2.53;1.10;;;2.00;99.90;;;;;;6182864;23;20173;-79
2023/01/11 03:14:27;;;;;;;3.50;1.33;;;2.00;99.90;;;;;;6183667;23;20203;-79
2023/01/11 03:17:05;;;;;;;4.00;1.40;;;2.00;99.90;;;;;;6184235;23;20164;-79
2023/01/11 03:19:39;;;;;;;2.73;1.40;;;1.90;99.90;;;;;;6183725;23;20185;-80
2023/01/11 03:22:12;;;;;;;1.63;1.13;;;1.90;99.90;;;;;;6182691;23;20169;-79
2023/01/11 03:24:45;;;;;;;2.17;1.20;;;1.80;99.90;;;;;;6184247;23;20499;-80
2023/01/11 03:27:21;;;;;;;2.03;1.13;;;1.70;99.90;;;;;;6183628;23;20185;-80
2023/01/11 03:29:55;;;;;;;3.07;1.47;;;1.70;99.90;;;;;;6184043;23;20181;-78
2023/01/11 03:32:30;;;;;;;1.47;1.20;;;1.70;99.90;;;;;;6182989;23;20157;-81
2023/01/11 03:35:13;;;;;;;4.00;1.50;;;1.70;99.90;;;;;;6184112;23;20191;-78
2023/01/11 03:37:46;;;;;;;1.73;1.33;;;1.70;99.90;;;;;;6183693;23;20165;-80
2023/01/11 03:40:18;;;;;;;2.03;1.20;;;1.70;99.90;;;;;;6184123;23;20212;-79
2023/01/11 03:45:39;;;;;;;3.37;1.40;;;1.70;99.90;;;;;;6183343;23;20310;-80
2023/01/11 03:48:12;;;;;;;1.60;1.40;;;1.70;99.90;;;;;;6183791;23;20191;-77
2023/01/11 03:50:41;;;;;;;1.87;1.40;;;1.70;99.90;;;;;;6183009;23;20231;-79
2023/01/11 03:53:11;;;;;;;2.17;1.37;;;1.70;99.90;;;;;;6183214;23;20243;-78
2023/01/11 03:55:42;;;;;;;4.23;1.60;;;1.70;99.90;;;;;;6183251;23;20268;-78
2023/01/11 03:58:10;;;;;;;2.37;1.77;;;1.70;99.90;;;;;;6181343;23;20177;-82
2023/01/11 04:00:38;;;;;;;2.93;1.40;;;1.70;99.90;;;;;;6183421;23;20181;-77
2023/01/11 04:03:11;;;;;;;3.00;1.40;;;1.70;99.90;;;;;;6185751;23;20180;-79
2023/01/11 04:05:42;;;;;;;2.43;1.53;;;1.70;99.90;;;;;;6185889;23;20197;-79
2023/01/11 04:08:10;;;;;;;4.07;1.77;;;1.70;99.90;;;;;;6186020;23;20216;-79
2023/01/11 04:10:39;;;;;;;1.53;1.30;;;1.60;99.90;;;;;;6185750;23;20259;-79
2023/01/11 04:13:07;;;;;;;1.90;1.50;;;1.70;99.90;;;;;;6185468;23;20185;-78
2023/01/11 04:15:35;;;;;;;2.83;1.53;;;1.60;99.90;;;;;;6185799;23;20189;-79
2023/01/11 04:18:04;;;;;;;3.23;1.53;;;1.70;99.90;;;;;;6185792;23;20180;-80
2023/01/11 04:20:35;;;;;;;2.43;1.50;;;1.60;99.90;;;;;;6184184;23;20184;-79
2023/01/11 04:23:04;;;;;;;2.77;1.70;;;1.60;99.90;;;;;;6185599;23;20185;-76
2023/01/11 04:25:33;;;;;;;3.47;1.50;;;1.60;99.90;;;;;;6186335;23;20181;-79
2023/01/11 04:28:01;;;;;;;1.70;1.50;;;1.60;99.90;;;;;;6186174;23;20224;-78
2023/01/11 04:30:29;;;;;;;2.07;1.50;;;1.60;99.90;;;;;;6186134;23;20185;-77
2023/01/11 04:32:58;;;;;;;2.23;1.77;;;1.70;99.90;;;;;;6185003;23;20200;-79
2023/01/11 04:35:26;;;;;;;4.63;1.87;;;1.70;99.90;;;;;;6185823;23;20192;-79
2023/01/11 04:37:57;;;;;;;1.90;1.43;;;1.80;99.90;;;;;;6185766;23;20181;-79
2023/01/11 04:40:25;;;;;;;2.57;1.30;;;1.80;99.90;;;;;;6185929;23;20609;-79
2023/01/11 04:42:52;;;;;;;3.13;1.60;;;1.90;99.90;;;;;;6184738;23;20268;-80
2023/01/11 04:45:20;;;;;;;1.83;1.50;;;1.90;99.90;;;;;;6189317;23;20212;-76
2023/01/11 04:47:54;;;;;;;3.03;1.40;;;2.00;99.90;;;;;;6185670;23;20259;-80
2023/01/11 04:50:23;;;;;;;2.87;1.70;;;2.00;99.90;;;;;;6186051;23;20181;-79
2023/01/11 04:52:52;;;;;;;2.67;1.60;;;2.10;99.90;;;;;;6184488;23;20204;-77
2023/01/11 04:55:21;;;;;;;3.10;1.60;;;2.10;99.90;;;;;;6186528;23;20185;-73
2023/01/11 04:57:49;;;;;;;3.50;1.40;;;2.10;99.90;;;;;;6187248;23;20191;-74
2023/01/11 05:00:18;;;;;;;4.27;1.40;;;2.20;99.90;;;;;;6184859;23;20184;-76
2023/01/11 05:02:47;;;;;;;3.50;1.43;;;2.20;99.90;;;;;;6184347;23;20181;-74
2023/01/11 05:05:15;;;;;;;2.30;1.60;;;2.30;99.90;;;;;;6185097;23;20189;-77
2023/01/11 05:07:43;;;;;;;1.70;1.30;;;2.30;99.90;;;;;;6185074;23;20217;-76
2023/01/11 05:10:12;;;;;;;2.57;1.40;;;2.30;99.90;;;;;;6185882;23;20177;-77
2023/01/11 05:12:41;;;;;;;2.33;1.40;;;2.30;99.90;;;;;;6184475;23;20188;-78
2023/01/11 05:15:11;;;;;;;1.50;1.40;;;2.30;99.90;;;;;;6185442;23;20181;-78
2023/01/11 05:17:39;;;;;;;2.47;1.40;;;2.40;99.90;;;;;;6185519;23;20188;-79
2023/01/11 05:20:08;;;;;;;3.30;1.60;;;2.40;99.90;;;;;;6185151;23;20271;-78
2023/01/11 05:22:36;;;;;;;2.77;1.40;;;2.40;99.90;;;;;;6184386;23;20223;-80
2023/01/11 05:25:05;;;;;;;2.80;1.40;;;2.40;99.90;;;;;;6185372;23;20181;-76
2023/01/11 05:27:34;;;;;;;2.30;1.73;;;2.50;99.90;;;;;;6185236;23;20188;-79
2023/01/11 05:30:04;;;;;;;2.57;1.50;;;2.50;99.90;;;;;;6185022;23;20188;-79
2023/01/11 05:32:32;;;;;;;1.60;1.37;;;2.50;99.90;;;;;;6184193;23;20191;-79
2023/01/11 05:35:00;;;;;;;3.17;1.70;;;2.60;99.90;;;;;;6185370;23;20199;-77
2023/01/11 05:37:29;;;;;;;1.80;1.50;;;2.60;99.90;;;;;;6185584;23;20195;-75
2023/01/11 05:39:57;;;;;;;2.07;1.60;;;2.60;99.90;;;;;;6186225;23;20568;-80
2023/01/11 05:42:25;;;;;;;2.37;1.47;;;2.60;99.90;;;;;;6184172;23;20208;-77
2023/01/11 05:47:40;;;;;;;3.43;1.50;;;2.70;99.90;;;;;;6184967;23;20177;-78
2023/01/11 05:50:10;;;;;;;1.47;1.37;;;2.70;99.90;;;;;;6184969;23;20235;-77
2023/01/11 05:52:38;;;;;;;2.30;1.50;;;2.70;99.90;;;;;;6183771;23;20255;-76
2023/01/11 05:55:08;;;;;;;1.83;1.50;;;2.70;99.90;;;;;;6185150;23;20646;-79
2023/01/11 05:57:36;;;;;;;3.17;1.63;;;2.70;99.90;;;;;;6184962;23;20185;-77
2023/01/11 06:00:04;;;;;;;2.83;1.60;;;2.80;99.90;;;;;;6183378;23;20199;-78
2023/01/11 06:02:34;;;;;;;3.57;1.70;;;2.80;99.90;;;;;;6184983;23;20181;-77
2023/01/11 06:05:05;;;;;;;2.23;1.30;;;2.90;99.90;;;;;;6186215;23;20177;-78
2023/01/11 06:07:33;;;;;;;3.43;1.80;;;2.90;99.90;;;;;;6187397;23;20180;-76
2023/01/11 06:10:01;;;;;;;4.47;2.00;;;2.90;99.90;;;;;;6186132;23;20204;-76
2023/01/11 06:12:29;;;;;;;2.93;2.10;;;2.90;99.90;;;;;;6184565;23;20181;-80
2023/01/11 06:14:58;;;;;;;8.27;6.03;;;3.00;99.90;;;;;;6184641;23;20180;-77
2023/01/11 06:17:26;;;;;;;5.20;3.73;;;3.10;99.90;;;;;;6184952;23;20257;-78
2023/01/11 06:19:54;;;;;;;4.77;2.73;;;3.10;99.90;;;;;;6184782;23;20287;-77
2023/01/11 06:22:23;;;;;;;2.90;1.50;;;3.10;99.90;;;;;;6183888;23;20325;-78
2023/01/11 06:24:51;;;;;;;3.23;1.90;;;3.20;99.90;;;;;;6184962;23;20204;-78
2023/01/11 06:27:22;;;;;;;4.30;2.37;;;3.10;99.90;;;;;;6183820;23;20212;-77
2023/01/11 06:29:50;;;;;;;7.30;4.37;;;3.20;99.90;;;;;;6185049;23;20208;-77
2023/01/11 06:32:18;;;;;;;6.30;4.37;;;3.10;99.90;;;;;;6182462;23;20653;-79
2023/01/11 06:34:46;;;;;;;4.80;2.10;;;3.20;99.90;;;;;;6185464;23;20185;-80
2023/01/11 06:37:14;;;;;;;2.60;1.90;;;3.20;99.90;;;;;;6185247;23;20231;-79
2023/01/11 06:39:44;;;;;;;2.97;1.80;;;3.20;99.90;;;;;;6185021;23;20180;-78
2023/01/11 06:42:12;;;;;;;2.17;1.80;;;3.20;99.90;;;;;;6183612;23;20177;-79
2023/01/11 06:44:40;;;;;;;4.03;2.40;;;3.20;99.90;;;;;;6185103;23;20266;-78
2023/01/11 06:47:08;;;;;;;3.87;2.20;;;3.20;99.90;;;;;;6185328;23;20181;-78
2023/01/11 06:49:36;;;;;;;5.07;3.27;;;3.20;99.90;;;;;;6184611;23;20197;-74
2023/01/11 06:52:04;;;;;;;3.57;3.00;;;3.20;99.90;;;;;;6183893;23;20212;-76
2023/01/11 06:54:32;;;;;;;3.93;2.47;;;3.20;99.90;;;;;;6192102;23;20268;-74
2023/01/11 06:57:02;;;;;;;3.87;2.40;;;3.20;99.90;;;;;;6191821;23;20185;-79
2023/01/11 06:59:30;;;;;;;3.17;2.00;;;3.20;99.90;;;;;;6195609;23;20181;-78
2023/01/11 07:01:58;;;;;;;2.53;2.27;;;3.20;99.90;;;;;;6192544;23;20219;-79
2023/01/11 07:04:27;;;;;;;2.50;2.10;;;3.30;99.90;;;;;;6185188;23;20184;-79
2023/01/11 07:06:55;;;;;;;2.73;2.10;;;3.30;99.90;;;;;;6184393;23;20196;-80
2023/01/11 07:09:23;;;;;;;2.97;2.17;;;3.30;99.90;;;;;;6184707;23;20201;-78
2023/01/11 07:11:51;;;;;;;2.97;2.27;;;3.30;99.90;;;;;;6183045;23;20232;-80
2023/01/11 07:14:21;;;;;;;2.53;2.00;;;3.20;99.90;;;;;;6184906;23;20208;-79
2023/01/11 07:16:49;;;;;;;4.20;2.97;;;3.30;99.90;;;;;;6184698;23;20259;-79
2023/01/11 07:19:18;;;;;;;5.23;2.50;;;3.30;99.90;;;;;;6184108;23;20203;-79
2023/01/11 07:21:46;;;;;;;5.30;3.20;;;3.30;99.90;;;;;;6183469;23;20188;-79
2023/01/11 07:24:14;;;;;;;4.20;2.67;;;3.30;99.90;;;;;;6184429;23;20191;-77
2023/01/11 07:26:42;;;;;;;6.13;3.47;;;3.30;99.90;;;;;;6184442;23;20191;-79
2023/01/11 07:29:10;;;;;;;5.43;4.53;;;3.30;99.90;;;;;;6183852;23;20205;-79
2023/01/11 07:31:40;;;;;;;7.77;6.97;;;3.40;99.90;;;;;;6182187;23;20572;-79
2023/01/11 07:34:08;;;;;;;4.00;2.63;;;3.40;99.90;;;;;;6189970;23;20181;-79
2023/01/11 07:36:38;;;;;;;3.87;2.80;;;3.50;99.90;;;;;;6190681;23;20633;-78
2023/01/11 07:39:06;;;;;;;5.07;2.30;;;3.40;99.90;;;;;;6183833;23;20168;-80
2023/01/11 07:44:22;;;;;;;9.27;7.53;;;3.40;99.90;;;;;;6184557;23;20189;-80
2023/01/11 07:46:51;;;;;;;4.83;2.93;;;3.40;99.90;;;;;;6184595;23;20187;-79
2023/01/11 07:49:19;;;;;;;6.73;4.40;;;3.40;99.90;;;;;;6184291;23;20243;-78
2023/01/11 07:51:50;;;;;;;17.47;15.60;;;3.50;99.90;;;;;;6183490;23;20185;-76
2023/01/11 07:54:18;;;;;;;6.67;3.93;;;3.60;99.90;;;;;;6184511;23;20606;-78
2023/01/11 07:56:46;;;;;;;5.10;2.67;;;3.60;99.90;;;;;;6183173;23;20643;-79
2023/01/11 07:59:14;;;;;;;5.33;3.03;;;3.60;99.90;;;;;;6182506;23;20188;-78
2023/01/11 08:01:43;;;;;;;4.90;3.13;;;3.70;99.90;;;;;;6182059;23;20269;-78
2023/01/11 08:04:13;;;;;;;5.17;3.00;;;3.70;99.90;;;;;;6183097;23;20289;-78
2023/01/11 08:06:41;;;;;;;3.30;2.50;;;3.70;99.90;;;;;;6184222;23;20267;-78
2023/01/11 08:09:10;;;;;;;3.83;2.73;;;3.70;99.90;;;;;;6184168;23;20187;-78
2023/01/11 08:14:39;;;;;;;4.70;3.63;;;3.70;99.90;;;;;;6184948;23;20187;-78
2023/01/11 08:17:07;;;;;;;3.57;3.03;;;3.80;99.90;;;;;;6183891;23;20627;-77
2023/01/11 08:19:37;;;;;;;3.70;2.73;;;3.90;99.90;;;;;;6184131;23;20638;-77
2023/01/11 08:22:05;;;;;;;2.93;2.43;;;4.00;99.90;;;;;;6182416;23;20244;-79
2023/01/11 08:24:34;;;;;;;3.63;2.60;;;4.00;99.90;;;;;;6182907;23;20273;-77
2023/01/11 08:27:02;;;;;;;5.53;2.50;;;4.10;99.90;;;;;;6184088;23;20260;-78
2023/01/11 08:29:31;;;;;;;5.10;2.50;;;4.10;99.90;;;;;;6183730;23;20727;-80
2023/01/11 08:31:59;;;;;;;6.47;2.50;;;4.20;99.90;;;;;;6182838;23;20189;-79
2023/01/11 08:34:28;;;;;;;2.23;1.90;;;4.20;99.90;;;;;;6184134;23;20185;-80
2023/01/11 08:37:00;;;;;;;5.70;2.40;;;4.30;99.90;;;;;;6184210;23;20181;-78
2023/01/11 08:39:29;;;;;;;4.27;2.70;;;4.30;99.90;;;;;;6185533;23;20774;-76
2023/01/11 08:41:58;;;;;;;4.23;2.50;;;4.40;99.90;;;;;;6188359;23;20189;-76
2023/01/11 08:44:26;;;;;;;3.70;2.20;;;4.40;99.90;;;;;;6187876;23;20185;-76
2023/01/11 08:47:02;;;;;;;3.77;2.10;;;4.50;99.90;;;;;;6184505;23;20602;-77
2023/01/11 08:49:33;;;;;;;3.60;2.20;;;4.50;99.90;;;;;;6186251;23;20185;-77
2023/01/11 08:52:03;;;;;;;3.17;2.00;;;4.50;99.90;;;;;;6183613;23;20734;-80
2023/01/11 08:54:31;;;;;;;3.57;2.10;;;4.60;99.90;;;;;;6185559;23;20280;-79
2023/01/11 08:56:59;;;;;;;3.17;2.07;;;4.70;99.90;;;;;;6185782;23;20188;-78
2023/01/11 08:59:27;;;;;;;3.10;2.00;;;4.70;99.90;;;;;;6181274;23;20209;-77
2023/01/11 09:01:59;;;;;;;4.07;2.20;;;4.70;99.90;;;;;;6184386;23;20240;-78
2023/01/11 09:04:28;;;;;;;4.60;2.00;;;4.80;99.90;;;;;;6185922;23;20181;-77
2023/01/11 09:06:56;;;;;;;2.77;2.13;;;4.90;99.90;;;;;;6184729;23;20583;-76
2023/01/11 09:09:25;;;;;;;2.53;2.10;;;4.90;99.90;;;;;;6186288;23;20185;-79
2023/01/11 09:11:59;;;;;;;2.70;2.10;;;5.00;99.90;;;;;;6184108;23;20245;-77
2023/01/11 09:14:29;;;;;;;3.13;2.17;;;5.10;99.90;;;;;;6185628;23;20169;-78
2023/01/11 09:19:49;;;;;;;4.87;2.93;;;5.30;99.90;;;;;;6186461;23;20546;-79
2023/01/11 09:22:17;;;;;;;5.40;3.77;;;5.40;99.90;;;;;;6183904;23;20185;-79
2023/01/11 09:24:47;;;;;;;4.27;2.33;;;5.50;99.90;;;;;;6185304;23;20191;-78
2023/01/11 09:27:15;;;;;;;4.37;1.90;;;5.60;99.90;;;;;;6185644;23;20184;-79
2023/01/11 09:29:44;;;;;;;2.57;1.90;;;5.70;99.90;;;;;;6184130;23;20239;-78
2023/01/11 09:32:13;;;;;;;1.60;1.50;;;5.70;99.90;;;;;;6181526;23;20181;-74
2023/01/11 09:34:44;;;;;;;3.30;1.80;;;5.90;99.90;;;;;;6184667;23;20184;-76
2023/01/11 09:37:13;;;;;;;2.83;1.90;;;6.10;99.90;;;;;;6185511;23;20184;-79
2023/01/11 09:39:42;;;;;;;3.47;2.03;;;6.20;99.90;;;;;;6185311;23;20216;-79
2023/01/11 09:42:36;;;;;;;2.57;1.37;;;6.30;99.90;;;;;;6183489;23;20220;-78
2023/01/11 09:45:12;;;;;;;2.37;1.60;;;6.40;99.90;;;;;;6185737;23;20248;-75
2023/01/11 09:47:46;;;;;;;2.67;1.57;;;6.60;99.90;;;;;;6187426;23;20626;-79
2023/01/11 09:50:20;;;;;;;1.93;1.40;;;6.80;99.90;;;;;;6183914;23;20535;-78
2023/01/11 09:52:52;;;;;;;2.00;1.50;;;6.90;99.90;;;;;;6183205;23;20167;-78
2023/01/11 09:55:31;;;;;;;1.67;1.40;;;7.00;99.90;;;;;;6185054;23;20203;-79
2023/01/11 09:58:25;;;;;;;1.67;1.40;;;7.00;99.90;;;;;;6184871;23;20208;-76
2023/01/11 10:01:02;;;;;;;2.67;1.60;;;7.00;99.90;;;;;;6183287;23;20177;-77
2023/01/11 10:03:53;;;;;;;1.53;1.30;;;7.20;99.90;;;;;;6185162;23;20165;-71
2023/01/11 10:06:28;;;;;;;1.70;1.40;;;7.20;99.90;;;;;;6184358;23;20431;-79
2023/01/11 10:09:08;;;;;;;1.70;1.50;;;7.40;99.90;;;;;;6185069;23;20184;-80
2023/01/11 10:12:12;;;;;;;2.70;1.53;;;7.50;99.90;;;;;;6183252;23;20201;-76
2023/01/11 10:15:12;;;;;;;3.10;1.50;;;7.60;99.90;;;;;;6183030;23;20188;-77
2023/01/11 10:18:20;;;;;;;2.13;1.73;;;7.70;99.90;;;;;;6183331;23;20280;-78
2023/01/11 10:21:16;;;;;;;2.57;1.70;;;7.80;99.90;;;;;;6183173;23;20188;-78
2023/01/11 10:23:52;;;;;;;2.13;1.70;;;8.00;99.90;;;;;;6184213;23;20165;-76
2023/01/11 10:26:27;;;;;;;1.50;1.40;;;8.20;99.90;;;;;;6184666;23;20552;-78
2023/01/11 10:29:28;;;;;;;2.50;1.40;;;8.30;99.90;;;;;;6183661;23;20164;-76
2023/01/11 10:32:17;;;;;;;3.00;1.57;;;8.40;99.90;;;;;;6182465;23;20292;-75
2023/01/11 10:34:59;;;;;;;1.90;1.50;;;8.50;99.90;;;;;;6183234;23;20169;-78
2023/01/11 10:37:48;;;;;;;2.53;1.93;;;8.60;99.90;;;;;;6182201;23;20187;-79
2023/01/11 10:40:36;;;;;;;8.53;4.47;;;8.90;99.90;;;;;;6180579;23;20158;-75
2023/01/11 10:43:15;;;;;;;4.83;3.40;;;8.80;99.90;;;;;;6179529;23;20248;-79
2023/01/11 10:45:49;;;;;;;3.03;2.30;;;9.30;99.90;;;;;;6183728;23;20176;-77
2023/01/11 10:48:26;;;;;;;5.93;3.67;;;9.40;99.90;;;;;;6182884;23;20181;-78
2023/01/11 10:51:03;;;;;;;6.17;3.40;;;9.50;99.90;;;;;;6182806;23;20185;-79
2023/01/11 10:53:37;;;;;;;4.63;3.90;;;9.60;99.90;;;;;;6182475;23;20251;-77
2023/01/11 10:56:18;;;;;;;7.53;5.47;;;9.40;99.90;;;;;;6184049;23;20181;-77
2023/01/11 10:59:06;;;;;;;6.70;5.30;;;9.60;99.90;;;;;;6184159;23;20495;-76
2023/01/11 11:01:48;;;;;;;6.03;3.43;;;9.50;99.90;;;;;;6182574;23;20616;-75
2023/01/11 11:04:39;;;;;;;3.50;3.20;;;9.60;99.90;;;;;;6182416;23;20496;-77
2023/01/11 11:07:14;;;;;;;2.40;2.00;;;9.60;99.90;;;;;;6183163;23;20212;-76
2023/01/11 11:09:50;;;;;;;3.20;2.60;;;9.40;99.90;;;;;;6183165;23;20669;-78
2023/01/11 11:12:23;;;;;;;2.97;2.43;;;9.40;99.90;;;;;;6181541;23;20652;-77
2023/01/11 11:14:58;;;;;;;3.43;1.40;;;9.50;99.90;;;;;;6181504;23;20259;-78
2023/01/11 11:17:31;;;;;;;1.67;1.40;;;9.30;99.90;;;;;;6182099;23;20168;-76
2023/01/11 11:20:01;;;;;;;2.57;1.23;;;9.30;99.90;;;;;;6182243;23;20169;-78
2023/01/11 11:22:29;;;;;;;2.67;1.80;;;9.20;99.90;;;;;;6182278;23;20268;-76
2023/01/11 11:25:00;;;;;;;5.10;3.07;;;9.20;99.90;;;;;;6182523;23;20268;-76
2023/01/11 11:27:33;;;;;;;9.20;8.30;;;9.20;99.90;;;;;;6182190;23;20169;-76
2023/01/11 11:30:02;;;;;;;4.93;3.77;;;9.20;99.90;;;;;;6182206;23;20200;-79
2023/01/11 11:32:33;;;;;;;5.57;2.70;;;9.40;99.90;;;;;;6183275;23;20288;-77
2023/01/11 11:35:07;;;;;;;3.53;2.20;;;9.60;99.90;;;;;;6184228;23;20242;-79
2023/01/11 11:37:41;;;;;;;1.70;1.30;;;9.60;99.90;;;;;;6183790;23;20549;-78
2023/01/11 11:40:28;;;;;;;2.00;1.23;;;9.70;99.90;;;;;;6182001;23;20184;-79
2023/01/11 11:43:10;;;;;;;1.20;1.10;;;10.00;99.90;;;;;;6183601;23;20245;-78
2023/01/11 11:45:50;;;;;;;2.80;1.40;;;10.50;99.90;;;;;;6184017;23;20189;-76
2023/01/11 11:48:19;;;;;;;3.03;1.60;;;10.90;99.90;;;;;;6183967;23;20187;-78
2023/01/11 11:50:49;;;;;;;1.53;1.30;;;11.10;99.90;;;;;;6182883;23;20263;-76
2023/01/11 11:53:37;;;;;;;2.17;1.50;;;11.50;99.90;;;;;;6182675;23;20505;-78
2023/01/11 11:56:16;;;;;;;3.03;1.80;;;11.50;99.90;;;;;;6183898;23;20192;-77
2023/01/11 11:58:45;;;;;;;3.80;1.80;;;11.20;99.90;;;;;;6184754;23;20165;-77
2023/01/11 12:01:27;;;;;;;2.33;1.67;;;11.20;99.90;;;;;;6183342;23;20180;-77
2023/01/11 12:03:58;;;;;;;2.73;1.60;;;11.20;99.90;;;;;;6183340;23;20196;-76
2023/01/11 12:06:29;;;;;;;2.60;1.70;;;10.80;99.90;;;;;;6183801;23;20188;-74
2023/01/11 12:09:01;;;;;;;1.70;1.60;;;10.40;99.90;;;;;;6184715;23;20185;-76
2023/01/11 12:11:33;;;;;;;2.33;1.60;;;10.20;99.90;;;;;;6182988;23;20193;-76
2023/01/11 12:14:04;;;;;;;2.10;1.60;;;10.00;99.90;;;;;;6183691;23;20166;-78
2023/01/11 12:16:36;;;;;;;3.83;1.50;;;9.70;99.90;;;;;;6183634;23;20177;-79
2023/01/11 12:19:24;;;;;;;3.67;1.70;;;9.60;99.90;;;;;;6183906;23;20209;-78
2023/01/11 12:21:54;;;;;;;3.97;1.80;;;9.60;99.90;;;;;;6183157;23;20161;-78
2023/01/11 12:24:22;;;;;;;1.60;1.50;;;9.50;99.90;;;;;;6185658;23;20185;-76
2023/01/11 12:27:02;;;;;;;2.43;1.60;;;9.50;99.90;;;;;;6185242;23;20181;-79
2023/01/11 12:29:51;;;;;;;4.20;1.90;;;9.50;99.90;;;;;;6185887;23;20173;-75
2023/01/11 12:32:50;;;;;;;1.77;1.60;;;9.60;99.90;;;;;;6183498;23;20221;-77
2023/01/11 12:35:30;;;;;;;4.63;2.00;;;9.50;99.90;;;;;;6183363;23;20185;-78
2023/01/11 12:38:17;;;;;;;4.30;2.73;;;9.40;99.90;;;;;;6185110;23;20645;-77
2023/01/11 12:40:58;;;;;;;3.93;2.20;;;9.30;99.90;;;;;;6185330;23;20200;-76
2023/01/11 12:43:37;;;;;;;4.57;2.03;;;9.20;99.90;;;;;;6184920;23;20165;-74
2023/01/11 12:46:16;;;;;;;3.40;1.87;;;9.10;99.90;;;;;;6185522;23;20284;-75
2023/01/11 12:49:00;;;;;;;2.70;1.90;;;9.10;99.90;;;;;;6199640;23;20231;-76
2023/01/11 12:51:52;;;;;;;3.63;1.70;;;9.10;99.90;;;;;;6197930;23;20221;-76
2023/01/11 12:54:42;;;;;;;3.40;1.83;;;9.10;99.90;;;;;;6185610;23;20192;-76
2023/01/11 12:57:20;;;;;;;7.10;3.80;;;9.10;99.90;;;;;;6185714;23;20578;-78
2023/01/11 13:00:22;;;;;;;4.60;3.73;;;9.10;99.90;;;;;;6184637;23;20216;-77
2023/01/11 13:03:14;;;;;;;4.43;3.07;;;9.20;99.90;;;;;;6180416;23;20208;-79
2023/01/11 13:05:53;;;;;;;6.37;4.93;;;9.20;99.90;;;;;;6187896;23;20196;-78
2023/01/11 13:08:29;;;;;;;3.97;3.03;;;9.30;99.90;;;;;;6189747;23;20169;-76
2023/01/11 13:11:05;;;;;;;3.03;2.30;;;9.30;99.90;;;;;;6186402;23;20180;-78
2023/01/11 13:13:48;;;;;;;1.80;1.60;;;9.20;99.90;;;;;;6184437;23;20521;-77
2023/01/11 13:16:22;;;;;;;2.50;2.10;;;9.20;99.90;;;;;;6185676;23;20169;-77
2023/01/11 13:18:58;;;;;;;3.73;1.80;;;9.10;99.90;;;;;;6184832;23;20201;-76
2023/01/11 13:21:33;;;;;;;3.60;1.77;;;9.00;99.90;;;;;;6183579;23;20208;-78
2023/01/11 13:24:08;;;;;;;2.80;1.90;;;9.00;99.90;;;;;;6184652;23;20615;-77
2023/01/11 13:26:41;;;;;;;3.90;1.90;;;8.90;99.90;;;;;;6185504;23;20532;-78
2023/01/11 13:29:15;;;;;;;2.50;2.00;;;8.90;99.90;;;;;;6184639;23;20173;-77
2023/01/11 13:31:46;;;;;;;4.03;2.30;;;8.80;99.90;;;;;;6183596;23;20184;-75
2023/01/11 13:34:19;;;;;;;3.30;2.10;;;8.80;99.90;;;;;;6184883;23;20169;-77
2023/01/11 13:36:54;;;;;;;4.77;2.27;;;8.70;99.90;;;;;;6184856;23;20240;-79
2023/01/11 13:39:28;;;;;;;3.23;2.23;;;8.60;99.90;;;;;;6185693;23;20251;-76
2023/01/11 13:42:03;;;;;;;4.80;2.63;;;8.60;99.90;;;;;;6184265;23;20191;-78
2023/01/11 13:44:35;;;;;;;3.00;2.30;;;8.60;99.90;;;;;;6184563;23;20477;-75
2023/01/11 13:47:09;;;;;;;3.17;2.10;;;8.60;99.90;;;;;;6185238;23;20173;-79
2023/01/11 13:49:52;;;;;;;3.40;2.03;;;8.60;99.90;;;;;;6184327;23;20256;-78
2023/01/11 13:52:36;;;;;;;4.73;2.10;;;8.60;99.90;;;;;;6183393;23;20516;-77